createdAt,value
2023-07-28T00:00:48.942Z,18.20
2023-07-28T00:03:15.663Z,18.20
2023-07-28T00:05:42.742Z,18.20
2023-07-28T00:08:09.500Z,18.20
2023-07-28T00:10:40.775Z,18.20
2023-07-28T00:13:07.519Z,18.20
2023-07-28T00:15:34.392Z,18.20
2023-07-28T00:18:02.810Z,18.20
2023-07-28T00:20:29.697Z,18.20
2023-07-28T00:22:56.517Z,18.20
2023-07-28T00:25:23.428Z,18.20
2023-07-28T00:27:50.225Z,18.10
2023-07-28T00:30:16.960Z,18.10
2023-07-28T00:32:43.833Z,18.10
2023-07-28T00:35:10.564Z,18.10
2023-07-28T00:37:37.338Z,18.10
2023-07-28T00:40:05.084Z,18.10
2023-07-28T00:42:31.917Z,18.20
2023-07-28T00:44:58.654Z,18.20
2023-07-28T00:47:25.580Z,18.20
2023-07-28T00:49:52.767Z,18.10
2023-07-28T00:52:19.573Z,18.10
2023-07-28T00:54:46.324Z,18.10
2023-07-28T00:57:13.252Z,18.10
2023-07-28T00:59:40.012Z,18.10
2023-07-28T01:02:06.929Z,18.10
2023-07-28T01:04:33.914Z,18.10
2023-07-28T01:07:19.490Z,18.10
2023-07-28T01:10:12.559Z,18.10
2023-07-28T01:12:39.417Z,18.10
2023-07-28T01:15:06.893Z,18.10
2023-07-28T01:17:33.764Z,18.10
2023-07-28T01:20:00.751Z,18.10
2023-07-28T01:22:36.960Z,18.10
2023-07-28T01:25:06.820Z,18.10
2023-07-28T01:27:33.762Z,18.10
2023-07-28T01:30:01.081Z,18.10
2023-07-28T01:32:27.845Z,18.10
2023-07-28T01:34:54.638Z,18.10
2023-07-28T01:37:21.778Z,18.10
2023-07-28T01:39:48.581Z,18.10
2023-07-28T01:42:15.302Z,18.00
2023-07-28T01:44:42.026Z,18.10
2023-07-28T01:47:08.988Z,18.10
2023-07-28T01:49:35.756Z,18.10
2023-07-28T01:52:02.556Z,18.00
2023-07-28T01:54:29.317Z,18.10
2023-07-28T01:56:56.038Z,18.10
2023-07-28T01:59:23.083Z,18.10
2023-07-28T02:01:50.072Z,18.10
2023-07-28T02:04:17.400Z,18.10
2023-07-28T02:06:44.187Z,18.10
2023-07-28T02:09:13.357Z,18.10
2023-07-28T02:11:40.189Z,18.20
2023-07-28T02:14:06.947Z,18.20
2023-07-28T02:16:34.275Z,18.10
2023-07-28T02:19:01.432Z,18.10
2023-07-28T02:21:29.194Z,18.10
2023-07-28T02:23:57.591Z,18.10
2023-07-28T02:26:24.410Z,18.10
2023-07-28T02:28:51.159Z,18.20
2023-07-28T02:31:17.928Z,18.10
2023-07-28T02:33:44.663Z,18.10
2023-07-28T02:36:11.410Z,18.10
2023-07-28T02:38:38.393Z,18.10
2023-07-28T02:41:05.186Z,18.10
2023-07-28T02:43:32.040Z,18.10
2023-07-28T02:45:59.006Z,18.10
2023-07-28T02:48:25.764Z,18.10
2023-07-28T02:50:52.871Z,18.10
2023-07-28T02:53:20.272Z,18.10
2023-07-28T02:55:48.051Z,18.10
2023-07-28T02:58:14.922Z,18.10
2023-07-28T03:00:42.542Z,18.10
2023-07-28T03:03:11.663Z,18.10
2023-07-28T03:05:39.564Z,18.10
2023-07-28T03:08:25.450Z,18.10
2023-07-28T03:11:04.949Z,18.10
2023-07-28T03:13:31.872Z,18.10
2023-07-28T03:15:58.811Z,18.10
2023-07-28T03:18:25.798Z,18.10
2023-07-28T03:20:52.764Z,18.10
2023-07-28T03:23:19.523Z,18.10
2023-07-28T03:25:46.251Z,18.10
2023-07-28T03:28:13.182Z,18.10
2023-07-28T03:30:40.867Z,18.10
2023-07-28T03:33:08.225Z,18.10
2023-07-28T03:35:34.965Z,18.10
2023-07-28T03:38:07.331Z,18.10
2023-07-28T03:40:34.054Z,18.10
2023-07-28T03:43:01.014Z,18.10
2023-07-28T03:45:27.726Z,18.10
2023-07-28T03:47:54.622Z,18.10
2023-07-28T03:50:21.607Z,18.10
2023-07-28T03:52:48.335Z,18.10
2023-07-28T03:55:15.002Z,18.10
2023-07-28T03:57:41.759Z,18.10
2023-07-28T04:00:09.197Z,18.10
2023-07-28T04:02:41.934Z,18.10
2023-07-28T04:05:08.825Z,18.10
2023-07-28T04:07:35.682Z,18.10
2023-07-28T04:10:02.413Z,18.10
2023-07-28T04:12:29.174Z,18.20
2023-07-28T04:14:57.729Z,18.20
2023-07-28T04:17:25.012Z,18.20
2023-07-28T04:19:51.920Z,18.20
2023-07-28T04:22:22.311Z,18.20
2023-07-28T04:24:51.138Z,18.20
2023-07-28T04:27:18.021Z,18.20
2023-07-28T04:29:44.927Z,18.20
2023-07-28T04:32:13.732Z,18.20
2023-07-28T04:34:43.006Z,18.20
2023-07-28T04:37:13.583Z,18.20
2023-07-28T04:39:51.555Z,18.20
2023-07-28T04:42:18.332Z,18.20
2023-07-28T04:44:47.427Z,18.20
2023-07-28T04:47:15.082Z,18.30
2023-07-28T04:49:42.787Z,18.30
2023-07-28T04:52:09.603Z,18.30
2023-07-28T04:54:54.817Z,18.30
2023-07-28T04:57:21.881Z,18.40
2023-07-28T04:59:48.772Z,18.40
2023-07-28T05:02:15.570Z,18.40
2023-07-28T05:04:42.342Z,18.40
2023-07-28T05:07:09.150Z,18.50
2023-07-28T05:09:35.914Z,18.50
2023-07-28T05:12:02.793Z,18.50
2023-07-28T05:14:34.111Z,18.50
2023-07-28T05:17:00.877Z,18.50
2023-07-28T05:19:47.916Z,18.50
2023-07-28T05:22:17.767Z,18.50
2023-07-28T05:24:48.236Z,18.50
2023-07-28T05:27:15.816Z,18.60
2023-07-28T05:29:45.770Z,18.60
2023-07-28T05:32:13.061Z,18.60
2023-07-28T05:34:54.874Z,18.60
2023-07-28T05:37:21.937Z,18.60
2023-07-28T05:39:48.780Z,18.60
2023-07-28T05:42:15.651Z,18.70
2023-07-28T05:44:42.470Z,18.80
2023-07-28T05:47:09.442Z,19.10
2023-07-28T05:49:36.336Z,19.20
2023-07-28T05:52:03.424Z,19.20
2023-07-28T05:54:30.684Z,19.20
2023-07-28T05:56:57.499Z,19.20
2023-07-28T05:59:24.215Z,19.20
2023-07-28T06:01:50.985Z,19.10
2023-07-28T06:04:36.489Z,19.10
2023-07-28T06:07:05.841Z,19.00
2023-07-28T06:09:35.774Z,19.10
2023-07-28T06:12:02.616Z,19.10
2023-07-28T06:14:29.685Z,19.10
2023-07-28T06:16:57.553Z,19.10
2023-07-28T06:19:27.653Z,19.10
2023-07-28T06:21:55.757Z,19.10
2023-07-28T06:24:22.633Z,19.10
2023-07-28T06:26:51.489Z,19.10
2023-07-28T06:29:18.433Z,19.10
2023-07-28T06:31:45.348Z,19.20
2023-07-28T06:34:12.190Z,19.20
2023-07-28T06:36:38.989Z,19.30
2023-07-28T06:39:05.884Z,19.30
2023-07-28T06:41:33.450Z,19.40
2023-07-28T06:44:01.954Z,19.40
2023-07-28T06:46:29.715Z,19.40
2023-07-28T06:48:56.531Z,19.40
2023-07-28T06:51:23.382Z,19.40
2023-07-28T06:53:50.119Z,19.40
2023-07-28T06:56:17.144Z,19.40
2023-07-28T06:58:51.484Z,19.30
2023-07-28T07:01:25.083Z,19.40
2023-07-28T07:03:51.831Z,19.40
2023-07-28T07:06:18.630Z,19.40
2023-07-28T07:08:45.597Z,19.50
2023-07-28T07:11:12.503Z,19.50
2023-07-28T07:13:39.312Z,19.50
2023-07-28T07:16:07.613Z,19.50
2023-07-28T07:18:34.510Z,19.60
2023-07-28T07:21:04.466Z,19.50
2023-07-28T07:23:31.224Z,19.50
2023-07-28T07:25:58.014Z,19.50
2023-07-28T07:28:24.825Z,19.60
2023-07-28T07:30:51.710Z,19.50
2023-07-28T07:33:18.547Z,19.50
2023-07-28T07:35:45.246Z,19.50
2023-07-28T07:38:11.968Z,19.50
2023-07-28T07:40:38.848Z,19.50
2023-07-28T07:43:05.850Z,19.50
2023-07-28T07:45:33.007Z,19.60
2023-07-28T07:48:00.401Z,19.70
2023-07-28T07:50:27.105Z,19.80
2023-07-28T07:52:53.961Z,19.90
2023-07-28T07:55:20.712Z,20.00
2023-07-28T07:57:47.554Z,20.10
2023-07-28T08:00:14.614Z,20.20
2023-07-28T08:02:43.555Z,20.20
2023-07-28T08:05:12.159Z,20.20
2023-07-28T08:07:38.951Z,20.30
2023-07-28T08:10:05.925Z,20.20
2023-07-28T08:12:33.296Z,20.20
2023-07-28T08:15:00.405Z,20.20
2023-07-28T08:17:30.041Z,20.20
2023-07-28T08:19:56.851Z,20.20
2023-07-28T08:22:23.760Z,20.30
2023-07-28T08:24:50.569Z,20.30
2023-07-28T08:27:17.277Z,20.40
2023-07-28T08:29:44.135Z,20.40
2023-07-28T08:32:10.899Z,20.50
2023-07-28T08:34:37.791Z,20.50
2023-07-28T08:37:04.570Z,20.70
2023-07-28T08:39:31.574Z,20.70
2023-07-28T08:41:58.993Z,20.70
2023-07-28T08:44:25.749Z,20.70
2023-07-28T08:46:52.662Z,20.70
2023-07-28T08:49:19.451Z,20.80
2023-07-28T08:51:59.580Z,20.80
2023-07-28T08:54:26.414Z,20.90
2023-07-28T08:56:53.934Z,21.10
2023-07-28T08:59:24.165Z,21.20
2023-07-28T09:01:51.427Z,21.30
2023-07-28T09:04:18.280Z,21.50
2023-07-28T09:06:48.767Z,21.60
2023-07-28T09:09:15.804Z,21.70
2023-07-28T09:11:46.462Z,21.80
2023-07-28T09:14:14.049Z,21.80
2023-07-28T09:16:41.033Z,21.80
2023-07-28T09:19:08.623Z,21.70
2023-07-28T09:21:35.852Z,21.70
2023-07-28T09:24:09.546Z,21.60
2023-07-28T09:26:39.570Z,21.50
2023-07-28T09:29:20.006Z,21.50
2023-07-28T09:31:50.707Z,21.60
2023-07-28T09:34:27.469Z,21.60
2023-07-28T09:36:54.887Z,21.80
2023-07-28T09:39:21.903Z,21.90
2023-07-28T09:41:49.026Z,22.10
2023-07-28T09:44:16.368Z,22.10
2023-07-28T09:46:53.999Z,22.20
2023-07-28T09:49:28.617Z,22.20
2023-07-28T09:51:58.524Z,22.30
2023-07-28T09:54:28.538Z,22.20
2023-07-28T09:56:59.053Z,22.20
2023-07-28T09:59:39.733Z,22.20
2023-07-28T10:02:06.703Z,22.20
2023-07-28T10:04:33.664Z,22.10
2023-07-28T10:07:01.395Z,22.10
2023-07-28T10:09:28.910Z,22.10
2023-07-28T10:11:56.607Z,22.10
2023-07-28T10:14:27.519Z,22.10
2023-07-28T10:16:54.773Z,22.20
2023-07-28T10:19:21.920Z,22.30
2023-07-28T10:21:48.781Z,22.40
2023-07-28T10:24:16.023Z,22.60
2023-07-28T10:26:43.265Z,22.60
2023-07-28T10:29:16.406Z,22.80
2023-07-28T10:31:58.167Z,22.90
2023-07-28T10:34:33.708Z,22.90
2023-07-28T10:37:10.672Z,22.90
2023-07-28T10:39:41.492Z,22.90
2023-07-28T10:42:12.364Z,22.90
2023-07-28T10:44:41.633Z,22.80
2023-07-28T10:47:11.355Z,22.90
2023-07-28T10:49:44.582Z,22.90
2023-07-28T10:52:20.144Z,22.90
2023-07-28T10:54:48.420Z,22.80
2023-07-28T10:57:20.277Z,22.90
2023-07-28T10:59:48.348Z,22.90
2023-07-28T11:02:17.266Z,23.00
2023-07-28T11:04:48.512Z,23.00
2023-07-28T11:07:15.311Z,23.00
2023-07-28T11:09:42.197Z,23.00
2023-07-28T11:12:10.148Z,23.00
2023-07-28T11:14:36.994Z,23.00
2023-07-28T11:17:03.957Z,22.90
2023-07-28T11:19:30.800Z,22.90
2023-07-28T11:22:07.220Z,22.90
2023-07-28T11:24:37.373Z,22.90
2023-07-28T11:27:06.312Z,22.90
2023-07-28T11:29:42.875Z,22.90
2023-07-28T11:32:16.108Z,23.00
2023-07-28T11:34:46.289Z,23.10
2023-07-28T11:37:14.766Z,23.20
2023-07-28T11:39:44.581Z,23.30
2023-07-28T11:42:17.089Z,23.40
2023-07-28T11:44:47.380Z,23.50
2023-07-28T11:47:23.004Z,23.70
2023-07-28T11:49:52.746Z,23.90
2023-07-28T11:52:22.296Z,24.00
2023-07-28T11:54:52.518Z,24.10
2023-07-28T11:57:45.061Z,24.10
2023-07-28T12:00:18.229Z,24.10
2023-07-28T12:02:47.401Z,24.10
2023-07-28T12:05:17.849Z,24.10
2023-07-28T12:07:50.025Z,24.00
2023-07-28T12:10:42.912Z,24.10
2023-07-28T12:20:48.287Z,24.10
2023-07-28T12:25:45.917Z,23.90
2023-07-28T12:30:42.702Z,23.90
2023-07-28T12:33:21.188Z,23.80
2023-07-28T12:35:51.049Z,23.70
2023-07-28T12:48:21.075Z,23.90
2023-07-28T12:50:48.456Z,23.90
2023-07-28T12:53:18.078Z,23.90
2023-07-28T13:03:18.455Z,23.90
2023-07-28T13:05:45.267Z,23.90
2023-07-28T13:08:12.091Z,23.90
2023-07-28T13:13:14.363Z,24.10
2023-07-28T13:15:42.040Z,24.10
2023-07-28T13:18:08.851Z,24.10
2023-07-28T13:20:35.714Z,24.10
2023-07-28T13:23:03.133Z,24.20
2023-07-28T13:25:29.991Z,24.30
2023-07-28T13:27:57.010Z,24.40
2023-07-28T13:30:23.869Z,24.50
2023-07-28T13:32:50.758Z,24.50
2023-07-28T13:35:17.838Z,24.60
2023-07-28T13:37:44.920Z,24.60
2023-07-28T13:40:13.102Z,24.70
2023-07-28T13:42:40.740Z,24.70
2023-07-28T13:45:08.583Z,24.70
2023-07-28T13:47:35.740Z,24.70
2023-07-28T13:50:02.617Z,24.70
2023-07-28T13:52:29.749Z,24.70
2023-07-28T13:57:26.972Z,24.70
2023-07-28T13:59:53.691Z,24.80
2023-07-28T14:02:20.573Z,24.90
2023-07-28T14:04:47.442Z,24.90
2023-07-28T14:07:14.232Z,25.10
2023-07-28T14:09:43.399Z,25.20
2023-07-28T14:12:10.164Z,25.20
2023-07-28T14:14:36.974Z,25.30
2023-07-28T14:17:03.930Z,25.30
2023-07-28T14:19:30.824Z,25.20
2023-07-28T14:21:57.758Z,25.20
2023-07-28T14:24:24.521Z,25.20
2023-07-28T14:26:51.206Z,25.10
2023-07-28T14:29:18.130Z,25.00
2023-07-28T14:31:45.125Z,25.00
2023-07-28T14:34:11.983Z,25.00
2023-07-28T14:36:39.452Z,24.90
2023-07-28T14:39:07.170Z,24.90
2023-07-28T14:41:34.569Z,25.00
2023-07-28T14:44:01.950Z,24.90
2023-07-28T14:46:29.020Z,24.90
2023-07-28T14:48:55.867Z,24.90
2023-07-28T14:51:22.596Z,24.90
2023-07-28T14:53:49.435Z,24.80
2023-07-28T14:56:17.417Z,24.90
2023-07-28T14:58:44.505Z,24.90
2023-07-28T15:01:12.094Z,24.90
2023-07-28T15:03:39.185Z,25.10
2023-07-28T15:06:06.404Z,25.10
2023-07-28T15:08:33.370Z,25.20
2023-07-28T15:11:00.359Z,25.20
2023-07-28T15:13:28.436Z,25.30
2023-07-28T15:15:55.781Z,25.40
2023-07-28T15:18:22.815Z,25.40
2023-07-28T15:20:49.782Z,25.50
2023-07-28T15:23:16.594Z,25.50
2023-07-28T15:25:43.582Z,25.60
2023-07-28T15:28:11.573Z,25.60
2023-07-28T15:30:38.584Z,25.70
2023-07-28T15:33:05.368Z,25.70
2023-07-28T15:35:32.095Z,25.60
2023-07-28T15:38:00.446Z,25.60
2023-07-28T15:40:27.168Z,25.50
2023-07-28T15:42:54.135Z,25.50
2023-07-28T15:45:20.840Z,25.50
2023-07-28T15:47:47.851Z,25.50
2023-07-28T15:50:14.719Z,25.50
2023-07-28T15:52:41.519Z,25.50
2023-07-28T15:55:08.419Z,25.50
2023-07-28T15:57:35.293Z,25.40
2023-07-28T16:00:01.995Z,25.40
2023-07-28T16:02:38.950Z,25.30
2023-07-28T16:05:06.275Z,25.40
2023-07-28T16:07:34.062Z,25.40
2023-07-28T16:10:01.182Z,25.50
2023-07-28T16:12:28.404Z,25.50
2023-07-28T16:14:55.978Z,25.40
2023-07-28T16:17:23.281Z,25.30
2023-07-28T16:19:51.115Z,25.30
2023-07-28T16:22:18.796Z,25.20
2023-07-28T16:24:47.243Z,25.20
2023-07-28T16:27:14.679Z,25.10
2023-07-28T16:29:41.813Z,25.20
2023-07-28T16:32:11.075Z,25.20
2023-07-28T16:34:37.955Z,25.20
2023-07-28T16:37:05.228Z,25.20
2023-07-28T16:39:32.023Z,25.20
2023-07-28T16:41:58.807Z,25.20
2023-07-28T16:44:25.680Z,25.20
2023-07-28T16:46:52.487Z,25.20
2023-07-28T16:49:19.266Z,25.20
2023-07-28T16:51:46.096Z,25.20
2023-07-28T16:54:13.428Z,25.10
2023-07-28T16:56:42.169Z,25.00
2023-07-28T16:59:09.201Z,25.00
2023-07-28T17:01:36.340Z,24.90
2023-07-28T17:04:04.020Z,24.90
2023-07-28T17:06:30.821Z,24.80
2023-07-28T17:08:57.723Z,24.80
2023-07-28T17:11:24.840Z,24.70
2023-07-28T17:13:51.525Z,24.60
2023-07-28T17:16:18.214Z,24.50
2023-07-28T17:18:48.131Z,24.40
2023-07-28T17:21:16.434Z,24.30
2023-07-28T17:23:43.318Z,24.30
2023-07-28T17:26:10.327Z,24.20
2023-07-28T17:28:37.142Z,24.20
2023-07-28T17:31:03.926Z,24.20
2023-07-28T17:33:30.686Z,24.20
2023-07-28T17:35:58.338Z,24.20
2023-07-28T17:38:25.047Z,24.10
2023-07-28T17:40:52.985Z,24.20
2023-07-28T17:43:19.953Z,24.40
2023-07-28T17:45:46.672Z,24.70
2023-07-28T17:48:15.594Z,24.90
2023-07-28T17:50:42.539Z,25.00
2023-07-28T17:53:09.288Z,25.00
2023-07-28T17:55:36.133Z,25.00
2023-07-28T17:58:02.798Z,25.00
2023-07-28T18:00:29.715Z,24.90
2023-07-28T18:02:56.751Z,24.80
2023-07-28T18:05:23.860Z,24.70
2023-07-28T18:07:50.660Z,24.50
2023-07-28T18:10:18.017Z,24.40
2023-07-28T18:12:44.797Z,24.30
2023-07-28T18:15:11.811Z,24.20
2023-07-28T18:17:38.591Z,24.10
2023-07-28T18:20:05.761Z,24.00
2023-07-28T18:22:33.644Z,23.80
2023-07-28T18:25:00.530Z,23.70
2023-07-28T18:27:27.248Z,23.70
2023-07-28T18:29:53.987Z,23.60
2023-07-28T18:32:20.688Z,23.60
2023-07-28T18:34:47.376Z,23.60
2023-07-28T18:37:14.173Z,23.60
2023-07-28T18:39:40.878Z,23.60
2023-07-28T18:42:07.547Z,23.50
2023-07-28T18:44:34.262Z,23.50
2023-07-28T18:47:00.965Z,23.50
2023-07-28T18:49:27.663Z,23.50
2023-07-28T18:51:55.595Z,23.50
2023-07-28T18:54:22.383Z,23.50
2023-07-28T18:56:49.324Z,23.40
2023-07-28T18:59:16.052Z,23.40
2023-07-28T19:01:42.787Z,23.40
2023-07-28T19:04:09.748Z,23.40
2023-07-28T19:06:36.841Z,23.30
2023-07-28T19:09:04.118Z,23.30
2023-07-28T19:11:30.836Z,23.30
2023-07-28T19:13:57.592Z,23.20
2023-07-28T19:16:24.372Z,23.10
2023-07-28T19:18:51.165Z,23.10
2023-07-28T19:21:18.014Z,23.00
2023-07-28T19:23:45.504Z,23.00
2023-07-28T19:26:12.249Z,22.90
2023-07-28T19:28:39.079Z,22.80
2023-07-28T19:31:06.241Z,22.80
2023-07-28T19:33:33.270Z,22.70
2023-07-28T19:36:00.450Z,22.70
2023-07-28T19:38:27.522Z,22.60
2023-07-28T19:40:54.836Z,22.50
2023-07-28T19:43:21.931Z,22.50
2023-07-28T19:45:48.723Z,22.30
2023-07-28T19:48:15.634Z,22.30
2023-07-28T19:50:46.800Z,22.20
2023-07-28T19:53:14.209Z,22.20
2023-07-28T19:55:41.891Z,22.10
2023-07-28T19:58:09.877Z,22.00
2023-07-28T20:00:36.587Z,22.00
2023-07-28T20:03:03.447Z,21.90
2023-07-28T20:05:30.373Z,21.90
2023-07-28T20:07:57.116Z,21.80
2023-07-28T20:10:23.827Z,21.70
2023-07-28T20:12:50.815Z,21.70
2023-07-28T20:15:17.565Z,21.60
2023-07-28T20:17:47.269Z,21.60
2023-07-28T20:20:14.608Z,21.50
2023-07-28T20:22:41.634Z,21.50
2023-07-28T20:25:08.666Z,21.40
2023-07-28T20:27:42.240Z,21.40
2023-07-28T20:30:09.329Z,21.40
2023-07-28T20:32:36.120Z,21.40
2023-07-28T20:35:05.479Z,21.30
2023-07-28T20:37:32.341Z,21.30
2023-07-28T20:39:59.199Z,21.20
2023-07-28T20:42:25.994Z,21.20
2023-07-28T20:44:53.616Z,21.20
2023-07-28T20:47:20.295Z,21.10
2023-07-28T20:49:49.288Z,21.10
2023-07-28T20:52:16.025Z,21.10
2023-07-28T20:54:45.273Z,21.10
2023-07-28T20:57:12.420Z,21.00
2023-07-28T20:59:39.198Z,20.90
2023-07-28T21:02:06.496Z,20.90
2023-07-28T21:04:33.312Z,20.90
2023-07-28T21:06:59.984Z,20.90
2023-07-28T21:09:26.648Z,21.00
2023-07-28T21:11:53.451Z,20.90
2023-07-28T21:14:20.342Z,20.90
2023-07-28T21:16:47.144Z,20.90
2023-07-28T21:19:14.066Z,20.90
2023-07-28T21:21:40.820Z,20.90
2023-07-28T21:24:08.097Z,20.90
2023-07-28T21:26:35.132Z,21.00
2023-07-28T21:29:04.224Z,21.00
2023-07-28T21:31:31.005Z,21.00
2023-07-28T21:33:57.882Z,21.10
2023-07-28T21:36:25.563Z,21.10
2023-07-28T21:38:52.353Z,21.10
2023-07-28T21:41:19.648Z,21.20
2023-07-28T21:43:46.402Z,21.20
2023-07-28T21:46:13.281Z,21.20
2023-07-28T21:48:42.349Z,21.30
2023-07-28T21:51:09.358Z,21.30
2023-07-28T21:53:36.104Z,21.30
2023-07-28T21:56:02.841Z,21.30
2023-07-28T21:58:29.761Z,21.30
2023-07-28T22:00:56.532Z,21.30
2023-07-28T22:03:23.343Z,21.40
2023-07-28T22:05:50.179Z,21.30
2023-07-28T22:08:16.961Z,21.30
2023-07-28T22:10:43.746Z,21.30
2023-07-28T22:13:10.610Z,21.30
2023-07-28T22:15:37.533Z,21.30
2023-07-28T22:18:05.055Z,21.30
2023-07-28T22:20:33.404Z,21.40
2023-07-28T22:23:00.332Z,21.40
2023-07-28T22:25:27.892Z,21.40
2023-07-28T22:27:55.814Z,21.40
2023-07-28T22:30:24.456Z,21.30
2023-07-28T22:32:51.376Z,21.30
2023-07-28T22:35:18.124Z,21.30
2023-07-28T22:37:44.939Z,21.30
2023-07-28T22:40:11.819Z,21.30
2023-07-28T22:42:38.581Z,21.30
2023-07-28T22:45:05.635Z,21.30
2023-07-28T22:47:32.506Z,21.30
2023-07-28T22:49:59.245Z,21.30
2023-07-28T22:52:26.011Z,21.30
2023-07-28T22:55:02.484Z,21.30
2023-07-28T22:57:32.827Z,21.30
2023-07-28T22:59:59.573Z,21.30
2023-07-28T23:02:26.685Z,21.30
2023-07-28T23:04:53.551Z,21.30
2023-07-28T23:07:20.340Z,21.20
2023-07-28T23:09:47.119Z,21.20
2023-07-28T23:12:13.948Z,21.20
2023-07-28T23:14:40.708Z,21.20
2023-07-28T23:17:07.485Z,21.10
2023-07-28T23:19:34.222Z,21.10
2023-07-28T23:22:01.202Z,21.10
2023-07-28T23:24:28.601Z,21.10
2023-07-28T23:26:55.462Z,21.10
2023-07-28T23:29:22.154Z,21.10
2023-07-28T23:31:48.935Z,21.10
2023-07-28T23:34:15.570Z,21.10
2023-07-28T23:36:42.455Z,21.10
2023-07-28T23:39:09.688Z,21.10
2023-07-28T23:41:36.513Z,21.10
2023-07-28T23:44:03.231Z,21.10
2023-07-28T23:46:30.118Z,21.10
2023-07-28T23:48:56.789Z,21.10
2023-07-28T23:51:24.226Z,21.00
2023-07-28T23:53:51.197Z,21.10
2023-07-28T23:56:18.011Z,21.00
2023-07-28T23:58:44.814Z,21.00
